createdAt,value
2019-03-05T00:00:10.227Z,20.06
2019-03-05T00:00:50.812Z,20.01
2019-03-05T00:01:31.401Z,20.01
2019-03-05T00:02:11.991Z,20.01
2019-03-05T00:02:52.621Z,20.08
2019-03-05T00:03:33.219Z,19.99
2019-03-05T00:04:13.813Z,19.99
2019-03-05T00:04:54.407Z,19.99
2019-03-05T00:05:35.135Z,19.98
2019-03-05T00:06:15.731Z,20.03
2019-03-05T00:06:56.325Z,20.03
2019-03-05T00:07:36.933Z,20.03
2019-03-05T00:08:17.555Z,19.96
2019-03-05T00:08:58.153Z,19.98
2019-03-05T00:09:38.753Z,19.98
2019-03-05T00:10:19.353Z,20.02
2019-03-05T00:10:59.960Z,19.95
2019-03-05T00:11:40.589Z,20.02
2019-03-05T00:12:21.200Z,20.02
2019-03-05T00:13:01.805Z,19.98
2019-03-05T00:13:42.409Z,19.99
2019-03-05T00:14:23.141Z,20.01
2019-03-05T00:15:03.763Z,19.99
2019-03-05T00:15:44.403Z,20.06
2019-03-05T00:16:25.053Z,20.01
2019-03-05T00:17:05.660Z,19.95
2019-03-05T00:17:46.247Z,19.99
2019-03-05T00:18:26.827Z,20.06
2019-03-05T00:19:07.430Z,19.91
2019-03-05T00:19:48.029Z,20.08
2019-03-05T00:20:28.619Z,20.02
2019-03-05T00:21:09.211Z,20.06
2019-03-05T00:21:49.870Z,20.03
2019-03-05T00:22:30.401Z,20.01
2019-03-05T00:24:25.571Z,19.98
2019-03-05T00:25:06.165Z,19.98
2019-03-05T00:25:46.793Z,19.98
2019-03-05T00:26:27.394Z,20.03
2019-03-05T00:27:07.985Z,20.02
2019-03-05T00:27:48.565Z,19.99
2019-03-05T00:28:29.160Z,19.96
2019-03-05T00:29:09.775Z,19.98
2019-03-05T00:29:50.358Z,20.03
2019-03-05T00:30:30.963Z,20.05
2019-03-05T00:31:11.555Z,19.95
2019-03-05T00:31:52.201Z,19.98
2019-03-05T00:32:32.779Z,19.88
2019-03-05T00:33:13.384Z,19.99
2019-03-05T00:33:54.012Z,19.94
2019-03-05T00:34:34.611Z,20.01
2019-03-05T00:35:15.226Z,19.94
2019-03-05T00:35:55.817Z,19.98
2019-03-05T00:36:36.403Z,20.03
2019-03-05T00:37:17.090Z,20.02
2019-03-05T00:37:57.689Z,19.98
2019-03-05T00:38:38.293Z,19.94
2019-03-05T00:39:18.931Z,19.95
2019-03-05T00:39:59.510Z,20.05
2019-03-05T00:40:40.111Z,20.02
2019-03-05T00:41:20.751Z,20.01
2019-03-05T00:42:01.337Z,19.95
2019-03-05T00:42:41.929Z,20.01
2019-03-05T00:43:22.523Z,19.99
2019-03-05T00:44:03.116Z,19.96
2019-03-05T00:44:43.727Z,20.01
2019-03-05T00:45:24.349Z,19.96
2019-03-05T00:46:04.954Z,19.94
2019-03-05T00:46:45.550Z,19.91
2019-03-05T00:47:26.151Z,20.02
2019-03-05T00:48:06.741Z,19.99
2019-03-05T00:48:47.323Z,20.01
2019-03-05T00:49:27.945Z,19.96
2019-03-05T00:50:08.545Z,20.06
2019-03-05T00:50:49.150Z,19.99
2019-03-05T00:51:29.805Z,19.94
2019-03-05T00:52:10.320Z,20.01
2019-03-05T00:52:50.918Z,19.99
2019-03-05T00:53:31.501Z,19.98
2019-03-05T00:54:12.100Z,19.92
2019-03-05T00:54:52.704Z,19.91
2019-03-05T00:55:33.279Z,19.98
2019-03-05T00:56:13.879Z,19.96
2019-03-05T00:56:54.491Z,19.98
2019-03-05T00:57:35.080Z,19.96
2019-03-05T00:58:15.698Z,19.92
2019-03-05T00:58:56.279Z,19.94
2019-03-05T00:59:36.874Z,19.92
2019-03-05T01:00:17.463Z,19.95
2019-03-05T01:00:58.045Z,19.98
2019-03-05T01:01:38.641Z,19.95
2019-03-05T01:02:19.227Z,19.95
2019-03-05T01:02:59.870Z,20.02
2019-03-05T01:03:40.449Z,19.92
2019-03-05T01:04:21.035Z,20.03
2019-03-05T01:05:01.635Z,19.96
2019-03-05T01:05:42.245Z,19.91
2019-03-05T01:06:22.827Z,19.94
2019-03-05T01:07:03.406Z,19.88
2019-03-05T01:07:43.995Z,20.01
2019-03-05T01:08:24.606Z,20.02
2019-03-05T01:09:05.197Z,19.92
2019-03-05T01:09:45.811Z,19.92
2019-03-05T01:10:26.385Z,19.96
2019-03-05T01:11:06.984Z,19.87
2019-03-05T01:11:47.555Z,20.01
2019-03-05T01:12:28.149Z,19.92
2019-03-05T01:13:08.739Z,19.95
2019-03-05T01:13:49.333Z,20.05
2019-03-05T01:14:29.922Z,19.96
2019-03-05T01:15:10.516Z,19.94
2019-03-05T01:15:51.115Z,19.94
2019-03-05T01:16:31.701Z,19.91
2019-03-05T01:17:12.328Z,19.95
2019-03-05T01:17:52.921Z,19.92
2019-03-05T01:18:33.524Z,19.88
2019-03-05T01:19:14.118Z,20.01
2019-03-05T01:19:54.697Z,19.92
2019-03-05T01:20:35.295Z,19.87
2019-03-05T01:21:15.889Z,19.94
2019-03-05T01:21:56.474Z,19.94
2019-03-05T01:22:37.055Z,19.92
2019-03-05T01:23:17.688Z,19.91
2019-03-05T01:23:58.293Z,19.96
2019-03-05T01:24:38.885Z,19.99
2019-03-05T01:25:19.475Z,19.94
2019-03-05T01:26:00.064Z,19.95
2019-03-05T01:26:40.659Z,20.03
2019-03-05T01:27:21.249Z,19.95
2019-03-05T01:28:01.834Z,19.92
2019-03-05T01:28:42.432Z,19.96
2019-03-05T01:29:23.023Z,20.01
2019-03-05T01:30:03.615Z,19.94
2019-03-05T01:30:44.226Z,19.96
2019-03-05T01:31:24.840Z,19.87
2019-03-05T01:32:05.429Z,19.92
2019-03-05T01:32:46.036Z,19.94
2019-03-05T01:33:26.618Z,19.92
2019-03-05T01:34:07.213Z,19.92
2019-03-05T01:34:47.797Z,19.92
2019-03-05T01:35:28.386Z,19.95
2019-03-05T01:36:09.000Z,19.91
2019-03-05T01:36:49.591Z,19.99
2019-03-05T01:37:30.199Z,19.99
2019-03-05T01:38:10.805Z,19.92
2019-03-05T01:38:51.382Z,19.96
2019-03-05T01:39:31.969Z,19.91
2019-03-05T01:40:12.561Z,19.91
2019-03-05T01:40:53.139Z,19.88
2019-03-05T01:41:33.738Z,19.99
2019-03-05T01:42:14.358Z,19.92
2019-03-05T01:42:54.942Z,19.94
2019-03-05T01:43:35.532Z,19.91
2019-03-05T01:44:16.115Z,19.92
2019-03-05T01:44:56.727Z,19.92
2019-03-05T01:45:37.320Z,19.96
2019-03-05T01:46:17.924Z,19.92
2019-03-05T01:46:58.524Z,19.88
2019-03-05T01:47:39.118Z,19.86
2019-03-05T01:48:19.726Z,19.92
2019-03-05T01:49:00.360Z,19.91
2019-03-05T01:49:40.958Z,19.99
2019-03-05T01:50:21.586Z,19.84
2019-03-05T01:51:02.176Z,20.02
2019-03-05T01:51:42.832Z,19.91
2019-03-05T01:52:23.401Z,19.87
2019-03-05T01:53:03.990Z,19.99
2019-03-05T01:53:44.586Z,19.91
2019-03-05T01:54:25.177Z,19.91
2019-03-05T01:55:05.756Z,19.87
2019-03-05T01:55:46.343Z,19.91
2019-03-05T01:56:26.963Z,19.86
2019-03-05T01:57:07.543Z,19.94
2019-03-05T01:57:48.148Z,19.88
2019-03-05T01:58:28.748Z,19.95
2019-03-05T01:59:09.358Z,19.88
2019-03-05T01:59:49.944Z,19.87
2019-03-05T02:00:30.530Z,19.95
2019-03-05T02:01:11.122Z,19.91
2019-03-05T02:01:51.714Z,19.92
2019-03-05T02:02:32.313Z,19.87
2019-03-05T02:03:12.895Z,19.88
2019-03-05T02:03:53.502Z,19.88
2019-03-05T02:04:34.080Z,19.94
2019-03-05T02:05:14.755Z,19.95
2019-03-05T02:05:55.342Z,19.87
2019-03-05T02:06:35.970Z,19.84
2019-03-05T02:07:16.550Z,19.88
2019-03-05T02:07:57.136Z,19.91
2019-03-05T02:08:37.724Z,19.92
2019-03-05T02:09:18.318Z,19.88
2019-03-05T02:09:58.918Z,19.87
2019-03-05T02:10:39.512Z,19.83
2019-03-05T02:11:20.099Z,19.96
2019-03-05T02:12:00.694Z,19.98
2019-03-05T02:12:41.288Z,19.88
2019-03-05T02:13:21.884Z,19.92
2019-03-05T02:14:02.524Z,19.87
2019-03-05T02:14:43.108Z,19.95
2019-03-05T02:15:23.701Z,19.94
2019-03-05T02:16:04.298Z,19.88
2019-03-05T02:16:44.892Z,19.87
2019-03-05T02:17:25.473Z,19.88
2019-03-05T02:18:06.068Z,19.88
2019-03-05T02:18:46.682Z,19.88
2019-03-05T02:19:27.330Z,19.95
2019-03-05T02:20:07.923Z,19.8
2019-03-05T02:20:48.520Z,19.92
2019-03-05T02:21:29.123Z,19.84
2019-03-05T02:22:09.718Z,19.84
2019-03-05T02:22:50.319Z,19.87
2019-03-05T02:23:30.923Z,19.95
2019-03-05T02:24:11.532Z,19.94
2019-03-05T02:24:52.127Z,19.91
2019-03-05T02:25:32.726Z,19.81
2019-03-05T02:26:13.333Z,19.87
2019-03-05T02:26:53.938Z,19.88
2019-03-05T02:27:34.534Z,19.84
2019-03-05T02:28:15.130Z,19.86
2019-03-05T02:28:55.740Z,19.87
2019-03-05T02:29:36.328Z,19.87
2019-03-05T02:30:16.916Z,19.81
2019-03-05T02:30:57.505Z,19.92
2019-03-05T02:31:38.076Z,19.92
2019-03-05T02:32:18.687Z,19.92
2019-03-05T02:32:59.281Z,19.86
2019-03-05T02:33:39.895Z,19.88
2019-03-05T02:34:20.475Z,19.87
2019-03-05T02:35:01.059Z,19.84
2019-03-05T02:35:41.659Z,19.86
2019-03-05T02:36:22.241Z,19.88
2019-03-05T02:37:02.823Z,19.86
2019-03-05T02:37:43.414Z,19.84
2019-03-05T02:38:24.007Z,19.84
2019-03-05T02:39:04.599Z,19.87
2019-03-05T02:39:45.227Z,19.87
2019-03-05T02:40:25.807Z,19.87
2019-03-05T02:41:06.392Z,19.94
2019-03-05T02:41:46.974Z,19.87
2019-03-05T02:42:27.563Z,19.86
2019-03-05T02:43:08.149Z,19.87
2019-03-05T02:43:48.740Z,19.84
2019-03-05T02:44:29.324Z,19.88
2019-03-05T02:45:09.912Z,19.88
2019-03-05T02:45:50.501Z,19.91
2019-03-05T02:46:31.099Z,19.81
2019-03-05T02:47:11.689Z,19.87
2019-03-05T02:47:52.273Z,19.86
2019-03-05T02:48:32.876Z,19.86
2019-03-05T02:49:13.459Z,19.91
2019-03-05T02:49:54.132Z,19.87
2019-03-05T02:50:34.650Z,19.92
2019-03-05T02:51:15.243Z,19.81
2019-03-05T02:51:55.843Z,19.87
2019-03-05T02:52:36.442Z,19.88
2019-03-05T02:53:17.032Z,19.87
2019-03-05T02:53:57.645Z,19.87
2019-03-05T02:54:38.233Z,19.91
2019-03-05T02:55:18.826Z,19.88
2019-03-05T02:55:59.394Z,19.81
2019-03-05T02:56:39.993Z,19.87
2019-03-05T02:57:20.616Z,19.87
2019-03-05T02:58:01.199Z,19.8
2019-03-05T02:58:41.803Z,19.88
2019-03-05T02:59:22.395Z,19.87
2019-03-05T03:00:03.001Z,19.87
2019-03-05T03:00:43.601Z,19.88
2019-03-05T03:01:24.200Z,19.88
2019-03-05T03:02:04.801Z,19.81
2019-03-05T03:02:45.395Z,19.86
2019-03-05T03:03:25.979Z,19.84
2019-03-05T03:04:06.565Z,19.88
2019-03-05T03:04:47.179Z,19.84
2019-03-05T03:05:27.767Z,19.91
2019-03-05T03:06:08.348Z,19.81
2019-03-05T03:06:48.943Z,19.86
2019-03-05T03:07:29.543Z,19.84
2019-03-05T03:08:10.125Z,19.78
2019-03-05T03:08:50.707Z,19.91
2019-03-05T03:09:31.289Z,19.84
2019-03-05T03:10:11.865Z,19.77
2019-03-05T03:10:52.458Z,19.77
2019-03-05T03:11:33.039Z,19.81
2019-03-05T03:12:13.620Z,19.88
2019-03-05T03:12:54.224Z,19.88
2019-03-05T03:13:34.805Z,19.81
2019-03-05T03:14:15.399Z,19.81
2019-03-05T03:14:55.985Z,19.88
2019-03-05T03:15:36.576Z,19.83
2019-03-05T03:16:17.157Z,19.87
2019-03-05T03:16:57.749Z,19.77
2019-03-05T03:17:38.347Z,19.87
2019-03-05T03:18:18.943Z,19.8
2019-03-05T03:18:59.535Z,19.81
2019-03-05T03:19:40.139Z,19.83
2019-03-05T03:20:20.759Z,19.92
2019-03-05T03:21:01.349Z,19.86
2019-03-05T03:21:41.948Z,19.83
2019-03-05T03:22:22.541Z,19.77
2019-03-05T03:23:03.138Z,19.83
2019-03-05T03:23:43.721Z,19.84
2019-03-05T03:24:24.310Z,19.78
2019-03-05T03:25:04.908Z,19.81
2019-03-05T03:25:45.495Z,19.81
2019-03-05T03:26:26.122Z,19.87
2019-03-05T03:27:06.677Z,19.84
2019-03-05T03:27:47.276Z,19.8
2019-03-05T03:28:27.843Z,19.81
2019-03-05T03:29:08.432Z,19.76
2019-03-05T03:29:49.027Z,19.83
2019-03-05T03:30:29.611Z,19.83
2019-03-05T03:31:10.192Z,19.87
2019-03-05T03:31:50.776Z,19.81
2019-03-05T03:32:31.390Z,19.8
2019-03-05T03:33:11.977Z,19.83
2019-03-05T03:33:52.565Z,19.81
2019-03-05T03:34:33.182Z,19.81
2019-03-05T03:35:13.737Z,19.83
2019-03-05T03:35:54.327Z,19.81
2019-03-05T03:36:34.919Z,19.88
2019-03-05T03:37:15.502Z,19.78
2019-03-05T03:37:56.107Z,19.88
2019-03-05T03:38:36.773Z,19.81
2019-03-05T03:39:17.358Z,19.84
2019-03-05T03:39:57.960Z,19.8
2019-03-05T03:40:38.568Z,19.8
2019-03-05T03:41:19.156Z,19.81
2019-03-05T03:41:59.764Z,19.81
2019-03-05T03:42:40.349Z,19.86
2019-03-05T03:43:20.949Z,19.81
2019-03-05T03:44:01.539Z,19.81
2019-03-05T03:44:42.133Z,19.69
2019-03-05T03:45:22.717Z,19.83
2019-03-05T03:46:03.305Z,19.8
2019-03-05T03:46:43.920Z,19.77
2019-03-05T03:47:24.512Z,19.88
2019-03-05T03:48:05.123Z,19.81
2019-03-05T03:48:45.681Z,19.84
2019-03-05T03:49:26.266Z,19.8
2019-03-05T03:50:06.855Z,19.83
2019-03-05T03:50:47.456Z,19.73
2019-03-05T03:51:28.036Z,19.86
2019-03-05T03:52:08.639Z,19.83
2019-03-05T03:52:49.239Z,19.86
2019-03-05T03:53:29.811Z,19.8
2019-03-05T03:54:10.435Z,19.86
2019-03-05T03:54:51.031Z,19.83
2019-03-05T03:55:31.669Z,19.77
2019-03-05T03:56:12.252Z,19.78
2019-03-05T03:56:52.853Z,19.69
2019-03-05T03:57:33.450Z,19.83
2019-03-05T03:58:14.057Z,19.83
2019-03-05T03:58:54.663Z,19.86
2019-03-05T03:59:35.257Z,19.83
2019-03-05T04:00:15.841Z,19.83
2019-03-05T04:00:56.431Z,19.78
2019-03-05T04:01:37.026Z,19.8
2019-03-05T04:02:17.621Z,19.84
2019-03-05T04:02:58.211Z,19.73
2019-03-05T04:03:38.799Z,19.73
2019-03-05T04:04:19.403Z,19.77
2019-03-05T04:05:00.007Z,19.81
2019-03-05T04:05:40.587Z,19.81
2019-03-05T04:06:21.171Z,19.81
2019-03-05T04:07:01.771Z,19.8
2019-03-05T04:07:42.356Z,19.83
2019-03-05T04:08:22.948Z,19.77
2019-03-05T04:09:03.537Z,19.77
2019-03-05T04:09:44.120Z,19.78
2019-03-05T04:10:24.719Z,19.8
2019-03-05T04:11:05.315Z,19.77
2019-03-05T04:11:45.897Z,19.78
2019-03-05T04:12:26.509Z,19.8
2019-03-05T04:13:07.135Z,19.8
2019-03-05T04:13:47.729Z,19.76
2019-03-05T04:14:28.319Z,19.73
2019-03-05T04:15:08.906Z,19.8
2019-03-05T04:15:49.495Z,19.81
2019-03-05T04:16:30.096Z,19.76
2019-03-05T04:17:10.679Z,19.69
2019-03-05T04:17:51.269Z,19.76
2019-03-05T04:18:31.866Z,19.78
2019-03-05T04:19:12.447Z,19.8
2019-03-05T04:19:53.048Z,19.78
2019-03-05T04:20:33.657Z,19.76
2019-03-05T04:21:14.236Z,19.73
2019-03-05T04:21:54.822Z,19.77
2019-03-05T04:22:35.406Z,19.73
2019-03-05T04:23:15.987Z,19.69
2019-03-05T04:23:56.573Z,19.77
2019-03-05T04:24:37.197Z,19.73
2019-03-05T04:25:17.802Z,19.77
2019-03-05T04:25:58.402Z,19.84
2019-03-05T04:26:39.003Z,19.77
2019-03-05T04:27:19.605Z,19.76
2019-03-05T04:28:00.199Z,19.76
2019-03-05T04:28:40.811Z,19.8
2019-03-05T04:29:21.387Z,19.76
2019-03-05T04:30:01.982Z,19.73
2019-03-05T04:30:42.564Z,19.73
2019-03-05T04:31:23.149Z,19.77
2019-03-05T04:32:03.743Z,19.73
2019-03-05T04:32:44.335Z,19.77
2019-03-05T04:33:24.937Z,19.73
2019-03-05T04:34:05.528Z,19.77
2019-03-05T04:34:46.111Z,19.73
2019-03-05T04:35:26.707Z,19.73
2019-03-05T04:36:07.295Z,19.74
2019-03-05T04:36:47.885Z,19.77
2019-03-05T04:37:28.471Z,19.77
2019-03-05T04:38:09.065Z,19.74
2019-03-05T04:38:49.648Z,19.78
2019-03-05T04:39:30.253Z,19.77
2019-03-05T04:40:10.859Z,19.74
2019-03-05T04:40:51.455Z,19.74
2019-03-05T04:41:32.071Z,19.77
2019-03-05T04:42:12.694Z,19.68
2019-03-05T04:42:53.303Z,19.8
2019-03-05T04:43:33.909Z,19.76
2019-03-05T04:44:14.517Z,19.77
2019-03-05T04:44:55.089Z,19.73
2019-03-05T04:45:35.684Z,19.74
2019-03-05T04:46:16.265Z,19.69
2019-03-05T04:46:56.866Z,19.69
2019-03-05T04:47:37.473Z,19.69
2019-03-05T04:48:18.066Z,19.66
2019-03-05T04:48:58.651Z,19.74
2019-03-05T04:49:39.260Z,19.74
2019-03-05T04:50:19.857Z,19.77
2019-03-05T04:51:00.446Z,19.8
2019-03-05T04:51:41.027Z,19.73
2019-03-05T04:52:21.627Z,19.63
2019-03-05T04:53:02.245Z,19.73
2019-03-05T04:53:42.829Z,19.69
2019-03-05T04:54:23.444Z,19.73
2019-03-05T04:55:04.037Z,19.73
2019-03-05T04:55:44.638Z,19.74
2019-03-05T04:56:27.174Z,19.73
2019-03-05T04:57:05.819Z,19.71
2019-03-05T04:57:46.408Z,19.63
2019-03-05T04:58:27.005Z,19.76
2019-03-05T04:59:07.599Z,19.71
2019-03-05T04:59:48.199Z,19.71
2019-03-05T05:00:28.792Z,19.69
2019-03-05T05:01:09.369Z,19.74
2019-03-05T05:01:49.994Z,19.71
2019-03-05T05:02:30.599Z,19.74
2019-03-05T05:03:11.185Z,19.77
2019-03-05T05:03:51.772Z,19.68
2019-03-05T05:04:32.359Z,19.83
2019-03-05T05:05:12.943Z,19.68
2019-03-05T05:05:53.533Z,19.66
2019-03-05T05:06:34.113Z,19.77
2019-03-05T05:07:14.699Z,19.65
2019-03-05T05:07:55.281Z,19.66
2019-03-05T05:08:35.877Z,19.66
2019-03-05T05:09:16.492Z,19.71
2019-03-05T05:09:57.082Z,19.71
2019-03-05T05:10:37.677Z,19.73
2019-03-05T05:11:18.265Z,19.66
2019-03-05T05:11:58.869Z,19.68
2019-03-05T05:12:39.459Z,19.69
2019-03-05T05:13:20.057Z,19.69
2019-03-05T05:14:00.658Z,19.66
2019-03-05T05:14:41.257Z,19.66
2019-03-05T05:15:21.845Z,19.69
2019-03-05T05:16:02.456Z,19.66
2019-03-05T05:16:43.051Z,19.68
2019-03-05T05:17:23.637Z,19.69
2019-03-05T05:18:04.245Z,19.69
2019-03-05T05:18:44.863Z,19.71
2019-03-05T05:19:27.284Z,19.63
2019-03-05T05:20:06.067Z,19.69
2019-03-05T05:20:46.648Z,19.69
2019-03-05T05:21:27.240Z,19.66
2019-03-05T05:22:07.839Z,19.68
2019-03-05T05:22:48.425Z,19.69
2019-03-05T05:23:29.045Z,19.63
2019-03-05T05:24:09.653Z,19.68
2019-03-05T05:24:50.249Z,19.65
2019-03-05T05:25:30.857Z,19.71
2019-03-05T05:26:11.441Z,19.71
2019-03-05T05:26:52.069Z,19.61
2019-03-05T05:27:32.661Z,19.66
2019-03-05T05:28:13.257Z,19.73
2019-03-05T05:28:53.857Z,19.62
2019-03-05T05:29:34.437Z,19.63
2019-03-05T05:30:15.027Z,19.69
2019-03-05T05:30:55.604Z,19.61
2019-03-05T05:31:36.184Z,19.69
2019-03-05T05:32:16.769Z,19.66
2019-03-05T05:32:57.367Z,19.62
2019-03-05T05:33:37.959Z,19.69
2019-03-05T05:34:18.552Z,19.65
2019-03-05T05:34:59.171Z,19.65
2019-03-05T05:35:39.766Z,19.61
2019-03-05T05:36:20.349Z,19.58
2019-03-05T05:37:00.943Z,19.62
2019-03-05T05:37:41.563Z,19.63
2019-03-05T05:38:22.149Z,19.62
2019-03-05T05:39:02.741Z,19.61
2019-03-05T05:39:43.323Z,19.66
2019-03-05T05:40:23.909Z,19.62
2019-03-05T05:41:04.497Z,19.74
2019-03-05T05:41:45.084Z,19.61
2019-03-05T05:42:25.783Z,19.58
2019-03-05T05:43:06.259Z,19.61
2019-03-05T05:43:46.854Z,19.61
2019-03-05T05:44:27.438Z,19.73
2019-03-05T05:45:08.027Z,19.71
2019-03-05T05:45:48.641Z,19.71
2019-03-05T05:46:29.247Z,19.65
2019-03-05T05:47:09.867Z,19.71
2019-03-05T05:47:50.457Z,19.58
2019-03-05T05:48:31.056Z,19.71
2019-03-05T05:49:11.657Z,19.62
2019-03-05T05:49:52.247Z,19.71
2019-03-05T05:50:32.839Z,19.56
2019-03-05T05:51:13.429Z,19.69
2019-03-05T05:51:54.026Z,19.61
2019-03-05T05:52:34.605Z,19.59
2019-03-05T05:53:15.205Z,19.62
2019-03-05T05:53:55.791Z,19.65
2019-03-05T05:54:36.385Z,19.61
2019-03-05T05:55:16.981Z,19.62
2019-03-05T05:55:57.557Z,19.68
2019-03-05T05:56:38.149Z,19.71
2019-03-05T05:57:18.739Z,19.61
2019-03-05T05:57:59.341Z,19.62
2019-03-05T05:58:39.919Z,19.61
2019-03-05T05:59:20.506Z,19.62
2019-03-05T06:00:01.118Z,19.63
2019-03-05T06:00:41.697Z,19.61
2019-03-05T06:01:22.295Z,19.68
2019-03-05T06:02:02.903Z,19.61
2019-03-05T06:02:43.559Z,19.59
2019-03-05T06:03:24.153Z,19.63
2019-03-05T06:04:04.759Z,19.61
2019-03-05T06:04:45.357Z,19.61
2019-03-05T06:05:25.973Z,19.66
2019-03-05T06:06:06.581Z,19.66
2019-03-05T06:06:47.181Z,19.63
2019-03-05T06:07:27.788Z,19.62
2019-03-05T06:08:08.383Z,19.58
2019-03-05T06:08:48.993Z,19.58
2019-03-05T06:09:29.597Z,19.63
2019-03-05T06:10:10.193Z,19.62
2019-03-05T06:10:52.834Z,19.58
2019-03-05T06:11:31.382Z,19.62
2019-03-05T06:12:11.979Z,19.65
2019-03-05T06:12:52.567Z,19.63
2019-03-05T06:13:33.149Z,19.61
2019-03-05T06:14:13.757Z,19.59
2019-03-05T06:14:54.352Z,19.63
2019-03-05T06:15:34.957Z,19.65
2019-03-05T06:16:15.552Z,19.65
2019-03-05T06:16:56.131Z,19.68
2019-03-05T06:17:36.713Z,19.58
2019-03-05T06:18:17.299Z,19.61
2019-03-05T06:18:57.901Z,19.61
2019-03-05T06:19:38.734Z,19.61
2019-03-05T06:20:19.320Z,19.63
2019-03-05T06:20:59.918Z,19.59
2019-03-05T06:21:40.507Z,19.59
2019-03-05T06:22:21.113Z,19.63
2019-03-05T06:23:01.694Z,19.63
2019-03-05T06:23:42.285Z,19.63
2019-03-05T06:24:22.871Z,19.59
2019-03-05T06:25:03.466Z,19.66
2019-03-05T06:25:44.063Z,19.65
2019-03-05T06:26:24.659Z,19.66
2019-03-05T06:27:05.299Z,19.58
2019-03-05T06:27:45.903Z,19.61
2019-03-05T06:28:26.501Z,19.65
2019-03-05T06:29:07.081Z,19.62
2019-03-05T06:29:47.687Z,19.65
2019-03-05T06:30:28.283Z,19.66
2019-03-05T06:31:08.858Z,19.61
2019-03-05T06:31:49.451Z,19.66
2019-03-05T06:32:30.057Z,19.65
2019-03-05T06:33:10.651Z,19.59
2019-03-05T06:33:51.249Z,19.59
2019-03-05T06:34:31.841Z,19.59
2019-03-05T06:35:12.564Z,19.62
2019-03-05T06:35:53.098Z,19.65
2019-03-05T06:36:33.678Z,19.63
2019-03-05T06:37:14.276Z,19.59
2019-03-05T06:37:54.867Z,19.61
2019-03-05T06:38:35.441Z,19.61
2019-03-05T06:39:16.025Z,19.62
2019-03-05T06:39:56.619Z,19.69
2019-03-05T06:40:37.227Z,19.63
2019-03-05T06:41:17.817Z,19.59
2019-03-05T06:41:58.418Z,19.61
2019-03-05T06:42:39.000Z,19.66
2019-03-05T06:43:19.595Z,19.65
2019-03-05T06:44:00.189Z,19.65
2019-03-05T06:44:40.781Z,19.61
2019-03-05T06:45:21.374Z,19.65
2019-03-05T06:46:01.969Z,19.71
2019-03-05T06:46:42.557Z,19.62
2019-03-05T06:47:23.139Z,19.68
2019-03-05T06:48:03.736Z,19.71
2019-03-05T06:48:44.322Z,19.68
2019-03-05T06:49:24.909Z,19.56
2019-03-05T06:50:05.505Z,19.61
2019-03-05T06:50:46.089Z,19.66
2019-03-05T06:51:26.681Z,19.59
2019-03-05T06:52:07.284Z,19.58
2019-03-05T06:52:47.888Z,19.59
2019-03-05T06:53:28.467Z,19.58
2019-03-05T06:54:09.055Z,19.69
2019-03-05T06:54:49.644Z,19.63
2019-03-05T06:55:30.237Z,19.61
2019-03-05T06:56:10.895Z,19.74
2019-03-05T06:56:51.563Z,19.59
2019-03-05T06:57:32.183Z,19.58
2019-03-05T06:58:12.765Z,19.62
2019-03-05T06:58:53.347Z,19.76
2019-03-05T06:59:33.944Z,19.62
2019-03-05T07:00:14.537Z,19.61
2019-03-05T07:00:55.149Z,19.66
2019-03-05T07:01:35.749Z,19.73
2019-03-05T07:03:15.623Z,19.76
2019-03-05T07:03:56.244Z,19.68
2019-03-05T07:04:36.839Z,19.66
2019-03-05T07:05:17.440Z,19.69
2019-03-05T07:05:58.043Z,19.69
2019-03-05T07:06:38.640Z,19.71
2019-03-05T07:07:19.235Z,19.65
2019-03-05T07:07:59.867Z,19.69
2019-03-05T07:08:40.481Z,19.71
2019-03-05T07:09:21.088Z,19.63
2019-03-05T07:10:01.687Z,19.69
2019-03-05T07:10:42.277Z,19.73
2019-03-05T07:11:22.877Z,19.74
2019-03-05T07:12:03.469Z,19.73
2019-03-05T07:12:45.889Z,19.78
2019-03-05T07:13:26.472Z,19.81
2019-03-05T07:14:07.077Z,19.8
2019-03-05T07:14:47.677Z,19.78
2019-03-05T07:15:28.306Z,19.81
2019-03-05T07:16:08.893Z,19.76
2019-03-05T07:16:49.489Z,19.73
2019-03-05T07:17:30.095Z,19.73
2019-03-05T07:18:10.693Z,19.66
2019-03-05T07:18:53.119Z,19.69
2019-03-05T07:19:33.709Z,19.69
2019-03-05T07:20:14.313Z,19.68
2019-03-05T07:20:54.918Z,19.66
2019-03-05T07:21:35.527Z,19.68
2019-03-05T07:22:16.135Z,19.69
2019-03-05T07:22:56.753Z,19.71
2019-03-05T07:23:37.349Z,19.63
2019-03-05T07:24:17.946Z,19.69
2019-03-05T07:24:58.536Z,19.65
2019-03-05T07:25:39.133Z,19.68
2019-03-05T07:26:19.729Z,19.74
2019-03-05T07:27:00.321Z,19.69
2019-03-05T07:27:40.923Z,19.8
2019-03-05T07:28:21.505Z,19.69
2019-03-05T07:29:02.109Z,19.65
2019-03-05T07:29:42.746Z,19.66
2019-03-05T07:30:23.344Z,19.71
2019-03-05T07:31:03.929Z,19.71
2019-03-05T07:31:44.519Z,19.71
2019-03-05T07:32:25.111Z,19.68
2019-03-05T07:33:05.702Z,19.63
2019-03-05T07:33:46.283Z,19.73
2019-03-05T07:34:26.897Z,19.74
2019-03-05T07:35:07.503Z,19.78
2019-03-05T07:35:48.119Z,19.69
2019-03-05T07:36:28.705Z,19.71
2019-03-05T07:37:09.289Z,19.78
2019-03-05T07:37:49.877Z,19.73
2019-03-05T07:38:30.480Z,19.66
2019-03-05T07:39:11.077Z,19.81
2019-03-05T07:39:51.661Z,19.66
2019-03-05T07:40:32.259Z,19.63
2019-03-05T07:41:12.862Z,19.66
2019-03-05T07:41:53.460Z,19.68
2019-03-05T07:42:34.100Z,19.68
2019-03-05T07:43:14.703Z,19.66
2019-03-05T07:43:55.301Z,19.71
2019-03-05T07:44:35.885Z,19.68
2019-03-05T07:45:16.476Z,19.68
2019-03-05T07:45:57.074Z,19.8
2019-03-05T07:46:37.691Z,19.81
2019-03-05T07:47:18.329Z,19.71
2019-03-05T07:47:58.929Z,19.78
2019-03-05T07:48:39.525Z,19.69
2019-03-05T07:49:20.116Z,19.68
2019-03-05T07:50:00.729Z,19.71
2019-03-05T07:50:41.347Z,19.68
2019-03-05T07:51:21.932Z,19.78
2019-03-05T07:52:02.545Z,19.73
2019-03-05T07:52:43.156Z,19.66
2019-03-05T07:53:23.749Z,19.69
2019-03-05T07:54:04.344Z,19.69
2019-03-05T07:54:44.954Z,19.83
2019-03-05T07:55:25.545Z,19.74
2019-03-05T07:56:06.168Z,19.77
2019-03-05T07:56:46.748Z,19.73
2019-03-05T07:57:27.358Z,19.74
2019-03-05T07:58:07.948Z,19.76
2019-03-05T07:58:48.559Z,19.71
2019-03-05T07:59:29.156Z,19.74
2019-03-05T08:00:09.767Z,19.68
2019-03-05T08:00:50.420Z,19.81
2019-03-05T08:01:31.030Z,19.74
2019-03-05T08:02:11.624Z,19.77
2019-03-05T08:02:52.240Z,19.77
2019-03-05T08:03:32.830Z,19.76
2019-03-05T08:04:13.448Z,19.74
2019-03-05T08:04:54.050Z,19.8
2019-03-05T08:05:34.661Z,19.77
2019-03-05T08:06:15.249Z,19.74
2019-03-05T08:06:55.873Z,19.77
2019-03-05T08:07:36.456Z,19.76
2019-03-05T08:08:26.287Z,19.71
2019-03-05T08:08:57.624Z,19.68
2019-03-05T08:09:38.221Z,19.76
2019-03-05T08:10:18.810Z,19.77
2019-03-05T08:10:59.394Z,19.76
2019-03-05T08:11:40.006Z,19.76
2019-03-05T08:12:20.624Z,19.77
2019-03-05T08:13:01.211Z,19.77
2019-03-05T08:13:41.799Z,19.71
2019-03-05T08:14:22.391Z,19.69
2019-03-05T08:15:02.987Z,19.76
2019-03-05T08:15:43.588Z,19.74
2019-03-05T08:16:24.182Z,19.81
2019-03-05T08:17:04.787Z,19.77
2019-03-05T08:17:46.974Z,19.77
2019-03-05T08:18:25.972Z,19.77
2019-03-05T08:19:06.562Z,19.81
2019-03-05T08:19:47.152Z,19.8
2019-03-05T08:20:27.746Z,19.77
2019-03-05T08:21:08.369Z,19.74
2019-03-05T08:21:48.930Z,19.76
2019-03-05T08:22:29.516Z,19.78
2019-03-05T08:23:10.168Z,19.78
2019-03-05T08:23:50.783Z,19.78
2019-03-05T08:24:31.374Z,19.81
2019-03-05T08:25:12.027Z,19.78
2019-03-05T08:25:52.676Z,19.78
2019-03-05T08:26:33.280Z,19.71
2019-03-05T08:27:13.891Z,19.78
2019-03-05T08:27:55.734Z,19.8
2019-03-05T08:28:36.798Z,19.8
2019-03-05T08:29:17.422Z,19.8
2019-03-05T08:29:58.054Z,19.78
2019-03-05T08:30:38.648Z,19.73
2019-03-05T08:31:19.250Z,19.8
2019-03-05T08:31:59.977Z,19.78
2019-03-05T08:32:40.563Z,19.77
2019-03-05T08:33:21.166Z,19.86
2019-03-05T08:34:01.762Z,19.78
2019-03-05T08:34:42.398Z,19.69
2019-03-05T08:35:22.983Z,19.81
2019-03-05T08:36:03.578Z,19.8
2019-03-05T08:36:44.186Z,19.74
2019-03-05T08:37:24.772Z,19.78
2019-03-05T08:38:05.366Z,19.83
2019-03-05T08:38:45.948Z,19.83
2019-03-05T08:39:26.546Z,19.83
2019-03-05T08:40:07.148Z,19.81
2019-03-05T08:40:47.728Z,19.76
2019-03-05T08:41:28.330Z,19.83
2019-03-05T08:42:08.924Z,19.8
2019-03-05T08:42:49.530Z,19.76
2019-03-05T08:43:30.117Z,19.78
2019-03-05T08:44:10.720Z,19.77
2019-03-05T08:44:51.336Z,19.84
2019-03-05T08:45:31.924Z,19.81